sensor_id;sensor_type;location;lat;lon;timestamp;temperature;humidity
34646;DHT22;20857;47.808;12.482;2022-09-23T00:00:34;3.70;99.90
34646;DHT22;20857;47.808;12.482;2022-09-23T00:03:00;3.60;99.90
34646;DHT22;20857;47.808;12.482;2022-09-23T00:05:30;3.70;99.90
34646;DHT22;20857;47.808;12.482;2022-09-23T00:07:56;3.80;99.90
34646;DHT22;20857;47.808;12.482;2022-09-23T00:10:23;3.70;99.90
34646;DHT22;20857;47.808;12.482;2022-09-23T00:12:50;3.70;99.90
34646;DHT22;20857;47.808;12.482;2022-09-23T00:15:16;3.70;99.90
34646;DHT22;20857;47.808;12.482;2022-09-23T00:17:42;3.80;99.90
34646;DHT22;20857;47.808;12.482;2022-09-23T00:20:08;3.70;99.90
34646;DHT22;20857;47.808;12.482;2022-09-23T00:22:35;3.60;99.90
34646;DHT22;20857;47.808;12.482;2022-09-23T00:25:05;3.50;99.90
34646;DHT22;20857;47.808;12.482;2022-09-23T00:27:31;3.40;99.90
34646;DHT22;20857;47.808;12.482;2022-09-23T00:29:58;3.30;99.90
34646;DHT22;20857;47.808;12.482;2022-09-23T00:32:24;3.30;99.90
34646;DHT22;20857;47.808;12.482;2022-09-23T00:34:50;3.40;99.90
34646;DHT22;20857;47.808;12.482;2022-09-23T00:37:17;3.40;99.90
34646;DHT22;20857;47.808;12.482;2022-09-23T00:39:42;3.40;99.90
34646;DHT22;20857;47.808;12.482;2022-09-23T00:42:13;3.50;99.90
34646;DHT22;20857;47.808;12.482;2022-09-23T00:44:53;3.50;99.90
34646;DHT22;20857;47.808;12.482;2022-09-23T00:47:38;3.40;99.90
34646;DHT22;20857;47.808;12.482;2022-09-23T00:52:35;3.30;99.90
34646;DHT22;20857;47.808;12.482;2022-09-23T00:55:05;3.20;99.90
34646;DHT22;20857;47.808;12.482;2022-09-23T00:57:32;3.20;99.90
34646;DHT22;20857;47.808;12.482;2022-09-23T01:00:00;3.20;99.90
34646;DHT22;20857;47.808;12.482;2022-09-23T01:02:26;3.20;99.90
34646;DHT22;20857;47.808;12.482;2022-09-23T01:04:52;3.30;99.90
34646;DHT22;20857;47.808;12.482;2022-09-23T01:07:18;3.30;99.90
34646;DHT22;20857;47.808;12.482;2022-09-23T01:09:45;3.40;99.90
34646;DHT22;20857;47.808;12.482;2022-09-23T01:15:24;3.30;99.90
34646;DHT22;20857;47.808;12.482;2022-09-23T01:18:11;3.20;99.90
34646;DHT22;20857;47.808;12.482;2022-09-23T01:32:17;3.00;99.90
34646;DHT22;20857;47.808;12.482;2022-09-23T01:35:03;2.90;99.90
34646;DHT22;20857;47.808;12.482;2022-09-23T01:37:46;3.00;99.90
34646;DHT22;20857;47.808;12.482;2022-09-23T01:42:55;3.10;99.90
34646;DHT22;20857;47.808;12.482;2022-09-23T01:45:42;3.10;99.90
34646;DHT22;20857;47.808;12.482;2022-09-23T01:51:12;3.20;99.90
34646;DHT22;20857;47.808;12.482;2022-09-23T01:53:50;3.20;99.90
34646;DHT22;20857;47.808;12.482;2022-09-23T01:56:29;3.10;99.90
34646;DHT22;20857;47.808;12.482;2022-09-23T01:59:13;3.00;99.90
34646;DHT22;20857;47.808;12.482;2022-09-23T02:01:50;3.10;99.90
34646;DHT22;20857;47.808;12.482;2022-09-23T02:06:59;3.10;99.90
34646;DHT22;20857;47.808;12.482;2022-09-23T02:09:32;3.00;99.90
34646;DHT22;20857;47.808;12.482;2022-09-23T02:12:02;3.00;99.90
34646;DHT22;20857;47.808;12.482;2022-09-23T02:14:37;3.00;99.90
34646;DHT22;20857;47.808;12.482;2022-09-23T02:17:14;3.00;99.90
34646;DHT22;20857;47.808;12.482;2022-09-23T02:22:14;3.10;99.90
34646;DHT22;20857;47.808;12.482;2022-09-23T02:24:40;3.10;99.90
34646;DHT22;20857;47.808;12.482;2022-09-23T02:27:11;3.10;99.90
34646;DHT22;20857;47.808;12.482;2022-09-23T02:35:17;3.10;99.90
34646;DHT22;20857;47.808;12.482;2022-09-23T02:38:10;3.10;99.90
34646;DHT22;20857;47.808;12.482;2022-09-23T02:40:57;3.00;99.90
34646;DHT22;20857;47.808;12.482;2022-09-23T02:46:03;2.90;99.90
34646;DHT22;20857;47.808;12.482;2022-09-23T02:48:42;2.90;99.90
34646;DHT22;20857;47.808;12.482;2022-09-23T02:51:09;2.80;99.90
34646;DHT22;20857;47.808;12.482;2022-09-23T02:53:35;2.80;99.90
34646;DHT22;20857;47.808;12.482;2022-09-23T02:56:10;2.80;99.90
34646;DHT22;20857;47.808;12.482;2022-09-23T02:58:37;2.70;99.90
34646;DHT22;20857;47.808;12.482;2022-09-23T03:12:00;2.60;99.90
34646;DHT22;20857;47.808;12.482;2022-09-23T03:17:11;2.60;99.90
34646;DHT22;20857;47.808;12.482;2022-09-23T03:19:48;2.60;99.90
34646;DHT22;20857;47.808;12.482;2022-09-23T03:24:49;2.60;99.90
34646;DHT22;20857;47.808;12.482;2022-09-23T03:27:20;2.70;99.90
34646;DHT22;20857;47.808;12.482;2022-09-23T03:29:49;2.70;99.90
34646;DHT22;20857;47.808;12.482;2022-09-23T03:32:18;2.60;99.90
34646;DHT22;20857;47.808;12.482;2022-09-23T03:34:48;2.50;99.90
34646;DHT22;20857;47.808;12.482;2022-09-23T03:39:55;2.50;99.90
34646;DHT22;20857;47.808;12.482;2022-09-23T03:42:24;2.50;99.90
34646;DHT22;20857;47.808;12.482;2022-09-23T03:44:53;2.30;99.90
34646;DHT22;20857;47.808;12.482;2022-09-23T03:47:20;2.30;99.90
34646;DHT22;20857;47.808;12.482;2022-09-23T03:49:47;2.30;99.90
34646;DHT22;20857;47.808;12.482;2022-09-23T03:52:19;2.30;99.90
34646;DHT22;20857;47.808;12.482;2022-09-23T03:54:44;2.20;99.90
34646;DHT22;20857;47.808;12.482;2022-09-23T03:57:11;2.10;99.90
34646;DHT22;20857;47.808;12.482;2022-09-23T03:59:37;2.20;99.90
34646;DHT22;20857;47.808;12.482;2022-09-23T04:02:03;2.20;99.90
34646;DHT22;20857;47.808;12.482;2022-09-23T04:04:30;2.10;99.90
34646;DHT22;20857;47.808;12.482;2022-09-23T04:06:59;2.10;99.90
34646;DHT22;20857;47.808;12.482;2022-09-23T04:09:25;2.10;99.90
34646;DHT22;20857;47.808;12.482;2022-09-23T04:11:51;2.10;99.90
34646;DHT22;20857;47.808;12.482;2022-09-23T04:14:18;2.20;99.90
34646;DHT22;20857;47.808;12.482;2022-09-23T04:16:45;2.30;99.90
34646;DHT22;20857;47.808;12.482;2022-09-23T04:19:11;2.30;99.90
34646;DHT22;20857;47.808;12.482;2022-09-23T04:21:36;2.30;99.90
34646;DHT22;20857;47.808;12.482;2022-09-23T04:24:03;2.30;99.90
34646;DHT22;20857;47.808;12.482;2022-09-23T04:26:30;2.40;99.90
34646;DHT22;20857;47.808;12.482;2022-09-23T04:28:56;2.40;99.90
34646;DHT22;20857;47.808;12.482;2022-09-23T04:31:22;2.30;99.90
34646;DHT22;20857;47.808;12.482;2022-09-23T04:33:49;2.40;99.90
34646;DHT22;20857;47.808;12.482;2022-09-23T04:36:15;2.40;99.90
34646;DHT22;20857;47.808;12.482;2022-09-23T04:38:45;2.30;99.90
34646;DHT22;20857;47.808;12.482;2022-09-23T04:41:12;2.20;99.90
34646;DHT22;20857;47.808;12.482;2022-09-23T04:43:38;2.10;99.90
34646;DHT22;20857;47.808;12.482;2022-09-23T04:46:06;2.00;99.90
34646;DHT22;20857;47.808;12.482;2022-09-23T04:48:33;2.10;99.90
34646;DHT22;20857;47.808;12.482;2022-09-23T04:51:07;2.20;99.90
34646;DHT22;20857;47.808;12.482;2022-09-23T04:53:38;2.20;99.90
34646;DHT22;20857;47.808;12.482;2022-09-23T04:56:09;2.20;99.90
34646;DHT22;20857;47.808;12.482;2022-09-23T04:58:36;2.30;99.90
34646;DHT22;20857;47.808;12.482;2022-09-23T05:03:43;2.40;99.90
34646;DHT22;20857;47.808;12.482;2022-09-23T05:06:10;2.40;99.90
34646;DHT22;20857;47.808;12.482;2022-09-23T05:08:45;2.40;99.90
34646;DHT22;20857;47.808;12.482;2022-09-23T05:11:11;2.50;99.90
34646;DHT22;20857;47.808;12.482;2022-09-23T05:13:37;2.40;99.90
34646;DHT22;20857;47.808;12.482;2022-09-23T05:16:08;2.40;99.90
34646;DHT22;20857;47.808;12.482;2022-09-23T05:18:34;2.20;99.90
34646;DHT22;20857;47.808;12.482;2022-09-23T05:21:01;2.20;99.90
34646;DHT22;20857;47.808;12.482;2022-09-23T05:23:28;2.20;99.90
34646;DHT22;20857;47.808;12.482;2022-09-23T05:26:04;2.20;99.90
34646;DHT22;20857;47.808;12.482;2022-09-23T05:28:31;2.20;99.90
34646;DHT22;20857;47.808;12.482;2022-09-23T05:33:34;2.40;99.90
34646;DHT22;20857;47.808;12.482;2022-09-23T05:36:00;2.40;99.90
34646;DHT22;20857;47.808;12.482;2022-09-23T05:38:30;2.40;99.90
34646;DHT22;20857;47.808;12.482;2022-09-23T05:40:56;2.50;99.90
34646;DHT22;20857;47.808;12.482;2022-09-23T05:43:23;2.50;99.90
34646;DHT22;20857;47.808;12.482;2022-09-23T05:45:49;2.50;99.90
34646;DHT22;20857;47.808;12.482;2022-09-23T05:48:15;2.60;99.90
34646;DHT22;20857;47.808;12.482;2022-09-23T05:50:51;2.70;99.90
34646;DHT22;20857;47.808;12.482;2022-09-23T05:53:17;2.70;99.90
34646;DHT22;20857;47.808;12.482;2022-09-23T05:55:43;2.80;99.90
34646;DHT22;20857;47.808;12.482;2022-09-23T05:58:10;2.80;99.90
34646;DHT22;20857;47.808;12.482;2022-09-23T06:00:41;2.90;99.90
34646;DHT22;20857;47.808;12.482;2022-09-23T06:03:15;3.00;99.90
34646;DHT22;20857;47.808;12.482;2022-09-23T06:05:41;3.10;99.90
34646;DHT22;20857;47.808;12.482;2022-09-23T06:08:07;3.20;99.90
34646;DHT22;20857;47.808;12.482;2022-09-23T06:10:42;3.30;99.90
34646;DHT22;20857;47.808;12.482;2022-09-23T06:13:08;3.40;99.90
34646;DHT22;20857;47.808;12.482;2022-09-23T06:15:36;3.60;99.90
34646;DHT22;20857;47.808;12.482;2022-09-23T06:18:02;3.70;99.90
34646;DHT22;20857;47.808;12.482;2022-09-23T06:20:28;3.70;99.90
34646;DHT22;20857;47.808;12.482;2022-09-23T06:22:54;3.80;99.90
34646;DHT22;20857;47.808;12.482;2022-09-23T06:25:21;4.00;99.90
34646;DHT22;20857;47.808;12.482;2022-09-23T06:27:54;4.00;99.90
34646;DHT22;20857;47.808;12.482;2022-09-23T06:30:23;4.20;99.90
34646;DHT22;20857;47.808;12.482;2022-09-23T06:32:54;4.30;99.90
34646;DHT22;20857;47.808;12.482;2022-09-23T06:35:22;4.40;99.90
34646;DHT22;20857;47.808;12.482;2022-09-23T06:37:49;4.60;99.90
34646;DHT22;20857;47.808;12.482;2022-09-23T06:40:15;4.70;99.90
34646;DHT22;20857;47.808;12.482;2022-09-23T06:42:41;4.90;99.90
34646;DHT22;20857;47.808;12.482;2022-09-23T06:45:08;5.00;99.90
34646;DHT22;20857;47.808;12.482;2022-09-23T06:47:40;5.10;99.90
34646;DHT22;20857;47.808;12.482;2022-09-23T06:50:07;5.20;99.90
34646;DHT22;20857;47.808;12.482;2022-09-23T06:52:33;5.40;99.90
34646;DHT22;20857;47.808;12.482;2022-09-23T06:55:00;5.50;99.90
34646;DHT22;20857;47.808;12.482;2022-09-23T06:57:30;5.70;99.90
34646;DHT22;20857;47.808;12.482;2022-09-23T06:59:56;5.80;99.90
34646;DHT22;20857;47.808;12.482;2022-09-23T07:02:25;6.00;99.90
34646;DHT22;20857;47.808;12.482;2022-09-23T07:04:51;6.10;99.90
34646;DHT22;20857;47.808;12.482;2022-09-23T07:07:17;6.10;99.90
34646;DHT22;20857;47.808;12.482;2022-09-23T07:09:44;6.30;99.90
34646;DHT22;20857;47.808;12.482;2022-09-23T07:12:09;6.40;99.90
34646;DHT22;20857;47.808;12.482;2022-09-23T07:14:35;6.60;99.90
34646;DHT22;20857;47.808;12.482;2022-09-23T07:17:00;6.60;99.90
34646;DHT22;20857;47.808;12.482;2022-09-23T07:19:28;6.80;99.90
34646;DHT22;20857;47.808;12.482;2022-09-23T07:21:54;7.00;99.90
34646;DHT22;20857;47.808;12.482;2022-09-23T07:24:19;7.20;99.90
34646;DHT22;20857;47.808;12.482;2022-09-23T07:26:45;7.40;99.90
34646;DHT22;20857;47.808;12.482;2022-09-23T07:29:12;7.50;99.90
34646;DHT22;20857;47.808;12.482;2022-09-23T07:31:38;7.60;99.90
34646;DHT22;20857;47.808;12.482;2022-09-23T07:34:04;7.80;99.90
34646;DHT22;20857;47.808;12.482;2022-09-23T07:36:30;8.00;99.90
34646;DHT22;20857;47.808;12.482;2022-09-23T07:38:57;8.20;99.90
34646;DHT22;20857;47.808;12.482;2022-09-23T07:41:29;8.30;99.90
34646;DHT22;20857;47.808;12.482;2022-09-23T07:43:56;8.40;99.90
34646;DHT22;20857;47.808;12.482;2022-09-23T07:46:24;8.60;99.90
34646;DHT22;20857;47.808;12.482;2022-09-23T07:48:50;8.60;99.90
34646;DHT22;20857;47.808;12.482;2022-09-23T07:51:23;8.70;99.90
34646;DHT22;20857;47.808;12.482;2022-09-23T07:53:50;8.90;99.90
34646;DHT22;20857;47.808;12.482;2022-09-23T07:56:17;9.10;99.90
34646;DHT22;20857;47.808;12.482;2022-09-23T07:58:44;9.30;99.90
34646;DHT22;20857;47.808;12.482;2022-09-23T08:01:10;9.50;99.90
34646;DHT22;20857;47.808;12.482;2022-09-23T08:03:37;9.80;99.90
34646;DHT22;20857;47.808;12.482;2022-09-23T08:06:12;9.80;99.90
34646;DHT22;20857;47.808;12.482;2022-09-23T08:08:39;9.70;99.90
34646;DHT22;20857;47.808;12.482;2022-09-23T08:11:10;9.80;99.90
34646;DHT22;20857;47.808;12.482;2022-09-23T08:13:36;9.90;99.90
34646;DHT22;20857;47.808;12.482;2022-09-23T08:16:02;9.90;99.90
34646;DHT22;20857;47.808;12.482;2022-09-23T08:18:27;10.00;99.90
34646;DHT22;20857;47.808;12.482;2022-09-23T08:20:53;10.20;99.90
34646;DHT22;20857;47.808;12.482;2022-09-23T08:23:19;10.30;99.90
34646;DHT22;20857;47.808;12.482;2022-09-23T08:25:45;10.30;99.90
34646;DHT22;20857;47.808;12.482;2022-09-23T08:28:14;10.40;99.90
34646;DHT22;20857;47.808;12.482;2022-09-23T08:30:47;10.60;99.90
34646;DHT22;20857;47.808;12.482;2022-09-23T08:33:13;10.60;99.90
34646;DHT22;20857;47.808;12.482;2022-09-23T08:35:39;10.70;99.90
34646;DHT22;20857;47.808;12.482;2022-09-23T08:38:05;10.90;99.90
34646;DHT22;20857;47.808;12.482;2022-09-23T08:40:38;10.90;99.90
34646;DHT22;20857;47.808;12.482;2022-09-23T08:43:05;11.00;99.90
34646;DHT22;20857;47.808;12.482;2022-09-23T08:45:33;11.00;99.90
34646;DHT22;20857;47.808;12.482;2022-09-23T08:48:09;11.10;99.90
34646;DHT22;20857;47.808;12.482;2022-09-23T08:50:42;11.20;99.90
34646;DHT22;20857;47.808;12.482;2022-09-23T08:53:28;11.20;99.90
34646;DHT22;20857;47.808;12.482;2022-09-23T08:55:57;11.30;99.90
34646;DHT22;20857;47.808;12.482;2022-09-23T09:09:36;12.10;99.90
34646;DHT22;20857;47.808;12.482;2022-09-23T09:12:31;12.10;99.90
34646;DHT22;20857;47.808;12.482;2022-09-23T09:18:18;12.40;99.90
34646;DHT22;20857;47.808;12.482;2022-09-23T09:20:28;12.40;99.90
34646;DHT22;20857;47.808;12.482;2022-09-23T09:22:58;12.60;99.90
34646;DHT22;20857;47.808;12.482;2022-09-23T09:25:48;12.60;99.90
34646;DHT22;20857;47.808;12.482;2022-09-23T09:28:33;12.60;99.90
34646;DHT22;20857;47.808;12.482;2022-09-23T09:31:02;12.70;99.90
34646;DHT22;20857;47.808;12.482;2022-09-23T09:36:43;13.00;99.90
34646;DHT22;20857;47.808;12.482;2022-09-23T09:39:12;13.00;99.90
34646;DHT22;20857;47.808;12.482;2022-09-23T09:41:41;13.00;99.90
34646;DHT22;20857;47.808;12.482;2022-09-23T09:47:16;13.00;99.90
34646;DHT22;20857;47.808;12.482;2022-09-23T09:50:05;13.20;99.90
34646;DHT22;20857;47.808;12.482;2022-09-23T09:52:31;13.20;99.90
34646;DHT22;20857;47.808;12.482;2022-09-23T09:55:36;13.20;99.90
34646;DHT22;20857;47.808;12.482;2022-09-23T09:58:03;13.30;99.90
34646;DHT22;20857;47.808;12.482;2022-09-23T10:06:22;13.40;99.90
34646;DHT22;20857;47.808;12.482;2022-09-23T10:09:07;13.60;99.90
34646;DHT22;20857;47.808;12.482;2022-09-23T10:11:33;13.60;99.90
34646;DHT22;20857;47.808;12.482;2022-09-23T10:14:12;13.70;99.90
34646;DHT22;20857;47.808;12.482;2022-09-23T10:16:42;13.80;99.90
34646;DHT22;20857;47.808;12.482;2022-09-23T10:19:21;13.90;99.90
34646;DHT22;20857;47.808;12.482;2022-09-23T10:21:51;13.90;99.90
34646;DHT22;20857;47.808;12.482;2022-09-23T10:24:26;14.10;99.90
34646;DHT22;20857;47.808;12.482;2022-09-23T10:27:00;14.10;99.90
34646;DHT22;20857;47.808;12.482;2022-09-23T10:29:37;14.20;99.90
34646;DHT22;20857;47.808;12.482;2022-09-23T10:34:46;14.40;99.90
34646;DHT22;20857;47.808;12.482;2022-09-23T10:37:35;14.40;99.90
34646;DHT22;20857;47.808;12.482;2022-09-23T10:40:24;14.50;99.90
34646;DHT22;20857;47.808;12.482;2022-09-23T10:43:45;14.70;99.90
34646;DHT22;20857;47.808;12.482;2022-09-23T10:49:41;15.00;99.90
34646;DHT22;20857;47.808;12.482;2022-09-23T10:52:37;15.00;99.90
34646;DHT22;20857;47.808;12.482;2022-09-23T11:09:34;15.40;99.90
34646;DHT22;20857;47.808;12.482;2022-09-23T11:28:45;15.80;99.90
34646;DHT22;20857;47.808;12.482;2022-09-23T11:36:40;15.70;99.90
34646;DHT22;20857;47.808;12.482;2022-09-23T11:39:19;15.80;99.90
34646;DHT22;20857;47.808;12.482;2022-09-23T11:41:51;16.00;99.90
34646;DHT22;20857;47.808;12.482;2022-09-23T11:44:32;16.10;99.90
34646;DHT22;20857;47.808;12.482;2022-09-23T11:49:58;16.30;99.90
34646;DHT22;20857;47.808;12.482;2022-09-23T11:52:28;16.30;99.90
34646;DHT22;20857;47.808;12.482;2022-09-23T11:54:58;16.30;99.90
34646;DHT22;20857;47.808;12.482;2022-09-23T12:00:05;16.50;99.90
34646;DHT22;20857;47.808;12.482;2022-09-23T12:02:43;16.50;99.90
34646;DHT22;20857;47.808;12.482;2022-09-23T12:05:19;16.40;99.90
34646;DHT22;20857;47.808;12.482;2022-09-23T12:08:08;16.40;99.90
34646;DHT22;20857;47.808;12.482;2022-09-23T12:13:15;16.70;99.90
34646;DHT22;20857;47.808;12.482;2022-09-23T12:18:21;16.70;99.90
34646;DHT22;20857;47.808;12.482;2022-09-23T12:21:10;16.80;99.90
34646;DHT22;20857;47.808;12.482;2022-09-23T12:26:32;17.00;99.90
34646;DHT22;20857;47.808;12.482;2022-09-23T12:29:00;17.00;99.90
34646;DHT22;20857;47.808;12.482;2022-09-23T12:31:28;17.10;99.90
34646;DHT22;20857;47.808;12.482;2022-09-23T12:33:59;17.10;99.90
34646;DHT22;20857;47.808;12.482;2022-09-23T12:36:48;17.20;99.90
34646;DHT22;20857;47.808;12.482;2022-09-23T12:39:26;17.10;99.90
34646;DHT22;20857;47.808;12.482;2022-09-23T12:42:02;17.20;99.90
34646;DHT22;20857;47.808;12.482;2022-09-23T12:44:44;17.20;99.90
34646;DHT22;20857;47.808;12.482;2022-09-23T12:49:50;17.10;99.90
34646;DHT22;20857;47.808;12.482;2022-09-23T12:54:49;17.20;99.90
34646;DHT22;20857;47.808;12.482;2022-09-23T13:02:53;17.50;99.90
34646;DHT22;20857;47.808;12.482;2022-09-23T13:05:44;17.60;99.90
34646;DHT22;20857;47.808;12.482;2022-09-23T13:08:29;17.60;99.90
34646;DHT22;20857;47.808;12.482;2022-09-23T13:10:59;17.70;99.90
34646;DHT22;20857;47.808;12.482;2022-09-23T13:13:31;17.50;99.90
34646;DHT22;20857;47.808;12.482;2022-09-23T13:16:29;17.40;99.90
34646;DHT22;20857;47.808;12.482;2022-09-23T13:18:57;17.40;99.90
34646;DHT22;20857;47.808;12.482;2022-09-23T13:24:16;17.60;99.90
34646;DHT22;20857;47.808;12.482;2022-09-23T13:26:52;17.60;99.90
34646;DHT22;20857;47.808;12.482;2022-09-23T13:32:52;17.60;99.90
34646;DHT22;20857;47.808;12.482;2022-09-23T13:35:26;17.60;99.90
34646;DHT22;20857;47.808;12.482;2022-09-23T13:37:55;17.60;99.90
34646;DHT22;20857;47.808;12.482;2022-09-23T13:40:24;17.70;99.90
34646;DHT22;20857;47.808;12.482;2022-09-23T13:43:06;17.80;99.90
34646;DHT22;20857;47.808;12.482;2022-09-23T13:45:36;17.90;99.90
34646;DHT22;20857;47.808;12.482;2022-09-23T13:48:11;18.00;99.90
34646;DHT22;20857;47.808;12.482;2022-09-23T13:50:38;18.00;99.90
34646;DHT22;20857;47.808;12.482;2022-09-23T13:53:10;17.80;99.90
34646;DHT22;20857;47.808;12.482;2022-09-23T13:55:37;17.70;99.90
34646;DHT22;20857;47.808;12.482;2022-09-23T13:58:12;17.60;99.90
34646;DHT22;20857;47.808;12.482;2022-09-23T14:00:38;17.60;99.90
34646;DHT22;20857;47.808;12.482;2022-09-23T14:03:29;17.70;99.90
34646;DHT22;20857;47.808;12.482;2022-09-23T14:06:00;17.70;99.90
34646;DHT22;20857;47.808;12.482;2022-09-23T14:08:27;17.70;99.90
34646;DHT22;20857;47.808;12.482;2022-09-23T14:10:55;17.70;99.90
34646;DHT22;20857;47.808;12.482;2022-09-23T14:13:25;17.60;99.90
34646;DHT22;20857;47.808;12.482;2022-09-23T14:15:53;17.40;99.90
34646;DHT22;20857;47.808;12.482;2022-09-23T14:18:37;17.50;99.90
34646;DHT22;20857;47.808;12.482;2022-09-23T14:21:04;17.50;99.90
34646;DHT22;20857;47.808;12.482;2022-09-23T14:23:31;17.50;99.90
34646;DHT22;20857;47.808;12.482;2022-09-23T14:25:57;17.50;99.90
34646;DHT22;20857;47.808;12.482;2022-09-23T14:28:25;17.60;99.90
34646;DHT22;20857;47.808;12.482;2022-09-23T14:30:53;17.70;99.90
34646;DHT22;20857;47.808;12.482;2022-09-23T14:33:25;17.80;99.90
34646;DHT22;20857;47.808;12.482;2022-09-23T14:35:55;17.80;99.90
34646;DHT22;20857;47.808;12.482;2022-09-23T14:38:26;17.70;99.90
34646;DHT22;20857;47.808;12.482;2022-09-23T14:41:38;17.70;99.90
34646;DHT22;20857;47.808;12.482;2022-09-23T14:44:06;17.60;99.90
34646;DHT22;20857;47.808;12.482;2022-09-23T14:46:39;17.70;99.90
34646;DHT22;20857;47.808;12.482;2022-09-23T14:49:15;17.80;99.90
34646;DHT22;20857;47.808;12.482;2022-09-23T14:54:33;18.10;99.90
34646;DHT22;20857;47.808;12.482;2022-09-23T14:57:00;18.00;99.90
34646;DHT22;20857;47.808;12.482;2022-09-23T14:59:34;18.00;99.90
34646;DHT22;20857;47.808;12.482;2022-09-23T15:02:01;18.00;99.90
34646;DHT22;20857;47.808;12.482;2022-09-23T15:04:29;18.00;99.90
34646;DHT22;20857;47.808;12.482;2022-09-23T15:07:06;17.90;99.90
34646;DHT22;20857;47.808;12.482;2022-09-23T15:09:40;17.90;99.90
34646;DHT22;20857;47.808;12.482;2022-09-23T15:12:14;17.80;99.90
34646;DHT22;20857;47.808;12.482;2022-09-23T15:14:44;17.80;99.90
34646;DHT22;20857;47.808;12.482;2022-09-23T15:19:54;17.60;99.90
34646;DHT22;20857;47.808;12.482;2022-09-23T15:22:22;17.70;99.90
34646;DHT22;20857;47.808;12.482;2022-09-23T15:24:50;17.60;99.90
34646;DHT22;20857;47.808;12.482;2022-09-23T15:27:30;17.50;99.90
34646;DHT22;20857;47.808;12.482;2022-09-23T15:30:16;17.40;99.90
34646;DHT22;20857;47.808;12.482;2022-09-23T15:32:43;17.30;99.90
34646;DHT22;20857;47.808;12.482;2022-09-23T15:35:15;17.30;99.90
34646;DHT22;20857;47.808;12.482;2022-09-23T15:37:44;17.30;99.90
34646;DHT22;20857;47.808;12.482;2022-09-23T15:42:45;17.30;99.90
34646;DHT22;20857;47.808;12.482;2022-09-23T15:45:16;17.40;99.90
34646;DHT22;20857;47.808;12.482;2022-09-23T15:47:44;17.40;99.90
34646;DHT22;20857;47.808;12.482;2022-09-23T15:50:11;17.50;99.90
34646;DHT22;20857;47.808;12.482;2022-09-23T15:52:37;18.00;99.90
34646;DHT22;20857;47.808;12.482;2022-09-23T15:55:18;18.60;99.90
34646;DHT22;20857;47.808;12.482;2022-09-23T15:57:48;18.60;99.90
34646;DHT22;20857;47.808;12.482;2022-09-23T16:00:14;18.50;99.90
34646;DHT22;20857;47.808;12.482;2022-09-23T16:02:41;18.10;99.90
34646;DHT22;20857;47.808;12.482;2022-09-23T16:05:17;17.80;99.90
34646;DHT22;20857;47.808;12.482;2022-09-23T16:07:44;17.50;99.90
34646;DHT22;20857;47.808;12.482;2022-09-23T16:10:13;17.30;99.90
34646;DHT22;20857;47.808;12.482;2022-09-23T16:12:38;17.20;99.90
34646;DHT22;20857;47.808;12.482;2022-09-23T16:15:11;17.00;99.90
34646;DHT22;20857;47.808;12.482;2022-09-23T16:17:37;16.80;99.90
34646;DHT22;20857;47.808;12.482;2022-09-23T16:20:03;16.50;99.90
34646;DHT22;20857;47.808;12.482;2022-09-23T16:22:29;16.40;99.90
34646;DHT22;20857;47.808;12.482;2022-09-23T16:24:54;16.10;99.90
34646;DHT22;20857;47.808;12.482;2022-09-23T16:27:20;15.80;99.90
34646;DHT22;20857;47.808;12.482;2022-09-23T16:29:46;15.50;99.90
34646;DHT22;20857;47.808;12.482;2022-09-23T16:32:12;15.20;99.90
34646;DHT22;20857;47.808;12.482;2022-09-23T16:34:37;14.90;99.90
34646;DHT22;20857;47.808;12.482;2022-09-23T16:37:03;14.70;99.90
34646;DHT22;20857;47.808;12.482;2022-09-23T16:39:29;14.40;99.90
34646;DHT22;20857;47.808;12.482;2022-09-23T16:42:00;14.20;99.90
34646;DHT22;20857;47.808;12.482;2022-09-23T16:44:26;13.90;99.90
34646;DHT22;20857;47.808;12.482;2022-09-23T16:46:52;13.70;99.90
34646;DHT22;20857;47.808;12.482;2022-09-23T16:49:20;13.50;99.90
34646;DHT22;20857;47.808;12.482;2022-09-23T16:51:46;13.30;99.90
34646;DHT22;20857;47.808;12.482;2022-09-23T16:54:11;13.20;99.90
34646;DHT22;20857;47.808;12.482;2022-09-23T16:56:40;13.00;99.90
34646;DHT22;20857;47.808;12.482;2022-09-23T16:59:10;12.90;99.90
34646;DHT22;20857;47.808;12.482;2022-09-23T17:01:36;12.70;99.90
34646;DHT22;20857;47.808;12.482;2022-09-23T17:04:20;12.50;99.90
34646;DHT22;20857;47.808;12.482;2022-09-23T17:06:48;12.40;99.90
34646;DHT22;20857;47.808;12.482;2022-09-23T17:09:15;12.20;99.90
34646;DHT22;20857;47.808;12.482;2022-09-23T17:11:41;12.10;99.90
34646;DHT22;20857;47.808;12.482;2022-09-23T17:14:14;12.00;99.90
34646;DHT22;20857;47.808;12.482;2022-09-23T17:16:40;11.90;99.90
34646;DHT22;20857;47.808;12.482;2022-09-23T17:19:07;11.70;99.90
34646;DHT22;20857;47.808;12.482;2022-09-23T17:21:33;11.60;99.90
34646;DHT22;20857;47.808;12.482;2022-09-23T17:23:59;11.50;99.90
34646;DHT22;20857;47.808;12.482;2022-09-23T17:26:25;11.50;99.90
34646;DHT22;20857;47.808;12.482;2022-09-23T17:28:53;11.40;99.90
34646;DHT22;20857;47.808;12.482;2022-09-23T17:31:19;11.40;99.90
34646;DHT22;20857;47.808;12.482;2022-09-23T17:33:46;11.30;99.90
34646;DHT22;20857;47.808;12.482;2022-09-23T17:36:13;11.30;99.90
34646;DHT22;20857;47.808;12.482;2022-09-23T17:38:41;11.30;99.90
34646;DHT22;20857;47.808;12.482;2022-09-23T17:41:07;11.20;99.90
34646;DHT22;20857;47.808;12.482;2022-09-23T17:43:33;11.20;99.90
34646;DHT22;20857;47.808;12.482;2022-09-23T17:46:18;11.20;99.90
34646;DHT22;20857;47.808;12.482;2022-09-23T17:48:44;11.20;99.90
34646;DHT22;20857;47.808;12.482;2022-09-23T17:51:15;11.20;99.90
34646;DHT22;20857;47.808;12.482;2022-09-23T17:53:43;11.00;99.90
34646;DHT22;20857;47.808;12.482;2022-09-23T17:56:18;10.90;99.90
34646;DHT22;20857;47.808;12.482;2022-09-23T17:58:45;10.70;99.90
34646;DHT22;20857;47.808;12.482;2022-09-23T18:01:13;10.60;99.90
34646;DHT22;20857;47.808;12.482;2022-09-23T18:03:40;10.60;99.90
34646;DHT22;20857;47.808;12.482;2022-09-23T18:08:39;10.50;99.90
34646;DHT22;20857;47.808;12.482;2022-09-23T18:11:16;10.40;99.90
34646;DHT22;20857;47.808;12.482;2022-09-23T18:13:56;10.30;99.90
34646;DHT22;20857;47.808;12.482;2022-09-23T18:16:25;10.30;99.90
34646;DHT22;20857;47.808;12.482;2022-09-23T18:18:52;10.20;99.90
34646;DHT22;20857;47.808;12.482;2022-09-23T18:21:20;10.20;99.90
34646;DHT22;20857;47.808;12.482;2022-09-23T18:23:46;10.20;99.90
34646;DHT22;20857;47.808;12.482;2022-09-23T18:26:20;10.20;99.90
34646;DHT22;20857;47.808;12.482;2022-09-23T18:28:46;10.20;99.90
34646;DHT22;20857;47.808;12.482;2022-09-23T18:31:13;10.20;99.90
34646;DHT22;20857;47.808;12.482;2022-09-23T18:33:39;10.20;99.90